General Aviation Weather

Text Reports

Enter one or more of the following location identifiers separated by a space:

Zip Code, Four-Character ICAO or Three-Character IATA airport codes.

METAR - Aviation Routine Weather Report
KRUQ - Salisbury, North Carolina
Updated at 2:35 PM GMT on August 29, 2015 (10:35 AM EDT):
METAR KRUQ 291435Z AUTO 00000KT 10SM CLR 23/17 A3025 RMK AO2 T02320166
TAF - Terminal Area Forecast
KRUQ - Salisbury, North Carolina
Updated at 2:35 PM GMT on August 29, 2015 (10:35 AM EDT):
No TAF is currently available for this location.
Decoded:
No decoded TAF is available.
PIREP - Pilot Weather Report
KRUQ - Salisbury, North Carolina
Updated at 2:35 PM GMT on August 29, 2015 (10:35 AM EDT):
No PIREP is currently available for this location.
AIRMET - Airmens Meteorological Information
KRUQ - Salisbury, North Carolina
Updated at 2:35 PM GMT on August 29, 2015 (10:35 AM EDT):
No AIRMET is currently available for this location.
SIGMET - Significant Meteorological Information
KRUQ - Salisbury, North Carolina
Updated at 2:35 PM GMT on August 29, 2015 (10:35 AM EDT):
No SIGMET is currently available for this location.
NOTAM - Notice to Airmen
KRUQ - Salisbury, North Carolina
Updated at 2:35 PM GMT on August 29, 2015 (10:35 AM EDT):
No NOTAM is currently available for this location.
Forecast Area
KRUQ - Salisbury, North Carolina
Updated at 2:35 PM GMT on August 29, 2015 (10:35 AM EDT):
No NOTAM is currently available for this location.
Aviation Weather Maps